sensor_id;sensor_type;location;lat;lon;timestamp;temperature;humidity
2489;DHT22;1255;48.716;9.124;2024-02-15T00:00:19;10.70;99.90
2489;DHT22;1255;48.716;9.124;2024-02-15T00:02:46;10.70;99.90
2489;DHT22;1255;48.716;9.124;2024-02-15T00:05:14;10.70;99.90
2489;DHT22;1255;48.716;9.124;2024-02-15T00:07:41;10.60;99.90
2489;DHT22;1255;48.716;9.124;2024-02-15T00:10:09;10.60;99.90
2489;DHT22;1255;48.716;9.124;2024-02-15T00:12:37;10.60;99.90
2489;DHT22;1255;48.716;9.124;2024-02-15T00:15:04;10.60;99.90
2489;DHT22;1255;48.716;9.124;2024-02-15T00:17:31;10.60;99.90
2489;DHT22;1255;48.716;9.124;2024-02-15T00:19:58;10.60;99.90
2489;DHT22;1255;48.716;9.124;2024-02-15T00:22:26;10.50;99.90
2489;DHT22;1255;48.716;9.124;2024-02-15T00:24:53;10.50;99.90
2489;DHT22;1255;48.716;9.124;2024-02-15T00:27:20;10.50;99.90
2489;DHT22;1255;48.716;9.124;2024-02-15T00:29:46;10.50;99.90
2489;DHT22;1255;48.716;9.124;2024-02-15T00:32:13;10.50;99.90
2489;DHT22;1255;48.716;9.124;2024-02-15T00:34:40;10.50;99.90
2489;DHT22;1255;48.716;9.124;2024-02-15T00:37:07;10.50;99.90
2489;DHT22;1255;48.716;9.124;2024-02-15T00:39:35;10.50;99.90
2489;DHT22;1255;48.716;9.124;2024-02-15T00:42:02;10.60;99.90
2489;DHT22;1255;48.716;9.124;2024-02-15T00:44:28;10.50;99.90
2489;DHT22;1255;48.716;9.124;2024-02-15T00:46:55;10.50;99.90
2489;DHT22;1255;48.716;9.124;2024-02-15T00:49:22;10.50;99.90
2489;DHT22;1255;48.716;9.124;2024-02-15T00:51:50;10.50;99.90
2489;DHT22;1255;48.716;9.124;2024-02-15T00:54:17;10.50;99.90
2489;DHT22;1255;48.716;9.124;2024-02-15T00:56:45;10.40;99.90
2489;DHT22;1255;48.716;9.124;2024-02-15T00:59:11;10.40;99.90
2489;DHT22;1255;48.716;9.124;2024-02-15T01:01:38;10.30;99.90
2489;DHT22;1255;48.716;9.124;2024-02-15T01:04:06;10.30;99.90
2489;DHT22;1255;48.716;9.124;2024-02-15T01:06:33;10.20;99.90
2489;DHT22;1255;48.716;9.124;2024-02-15T01:09:00;10.20;99.90
2489;DHT22;1255;48.716;9.124;2024-02-15T01:11:28;10.20;99.90
2489;DHT22;1255;48.716;9.124;2024-02-15T01:13:56;10.10;99.90
2489;DHT22;1255;48.716;9.124;2024-02-15T01:16:23;10.10;99.90
2489;DHT22;1255;48.716;9.124;2024-02-15T01:18:50;10.10;99.90
2489;DHT22;1255;48.716;9.124;2024-02-15T01:21:17;10.10;99.90
2489;DHT22;1255;48.716;9.124;2024-02-15T01:23:44;10.10;99.90
2489;DHT22;1255;48.716;9.124;2024-02-15T01:26:11;10.10;99.90
2489;DHT22;1255;48.716;9.124;2024-02-15T01:28:40;10.10;99.90
2489;DHT22;1255;48.716;9.124;2024-02-15T01:31:10;10.10;99.90
2489;DHT22;1255;48.716;9.124;2024-02-15T01:33:38;10.20;99.90
2489;DHT22;1255;48.716;9.124;2024-02-15T01:36:05;10.10;99.90
2489;DHT22;1255;48.716;9.124;2024-02-15T01:38:33;10.10;99.90
2489;DHT22;1255;48.716;9.124;2024-02-15T01:41:00;10.10;99.90
2489;DHT22;1255;48.716;9.124;2024-02-15T01:43:27;10.10;99.90
2489;DHT22;1255;48.716;9.124;2024-02-15T01:45:54;10.10;99.90
2489;DHT22;1255;48.716;9.124;2024-02-15T01:48:23;10.00;99.90
2489;DHT22;1255;48.716;9.124;2024-02-15T01:50:50;10.00;99.90
2489;DHT22;1255;48.716;9.124;2024-02-15T01:53:18;9.90;99.90
2489;DHT22;1255;48.716;9.124;2024-02-15T01:55:44;9.90;99.90
2489;DHT22;1255;48.716;9.124;2024-02-15T01:58:11;9.80;99.90
2489;DHT22;1255;48.716;9.124;2024-02-15T02:00:38;9.80;99.90
2489;DHT22;1255;48.716;9.124;2024-02-15T02:03:06;9.70;99.90
2489;DHT22;1255;48.716;9.124;2024-02-15T02:05:34;9.60;99.90
2489;DHT22;1255;48.716;9.124;2024-02-15T02:08:01;9.50;99.90
2489;DHT22;1255;48.716;9.124;2024-02-15T02:10:29;9.50;99.90
2489;DHT22;1255;48.716;9.124;2024-02-15T02:12:58;9.50;99.90
2489;DHT22;1255;48.716;9.124;2024-02-15T02:15:25;9.40;99.90
2489;DHT22;1255;48.716;9.124;2024-02-15T02:17:53;9.40;99.90
2489;DHT22;1255;48.716;9.124;2024-02-15T02:20:20;9.30;99.90
2489;DHT22;1255;48.716;9.124;2024-02-15T02:22:50;9.20;99.90
2489;DHT22;1255;48.716;9.124;2024-02-15T02:25:23;9.20;99.90
2489;DHT22;1255;48.716;9.124;2024-02-15T02:27:51;9.10;99.90
2489;DHT22;1255;48.716;9.124;2024-02-15T02:30:18;9.00;99.90
2489;DHT22;1255;48.716;9.124;2024-02-15T02:32:47;8.90;99.90
2489;DHT22;1255;48.716;9.124;2024-02-15T02:35:14;8.80;99.90
2489;DHT22;1255;48.716;9.124;2024-02-15T02:37:42;8.80;99.90
2489;DHT22;1255;48.716;9.124;2024-02-15T02:40:09;8.80;99.90
2489;DHT22;1255;48.716;9.124;2024-02-15T02:42:46;8.70;99.90
2489;DHT22;1255;48.716;9.124;2024-02-15T02:45:13;8.60;99.90
2489;DHT22;1255;48.716;9.124;2024-02-15T02:47:40;8.50;99.90
2489;DHT22;1255;48.716;9.124;2024-02-15T02:50:08;8.50;99.90
2489;DHT22;1255;48.716;9.124;2024-02-15T02:52:34;8.50;99.90
2489;DHT22;1255;48.716;9.124;2024-02-15T02:55:04;8.50;99.90
2489;DHT22;1255;48.716;9.124;2024-02-15T02:57:33;8.50;99.90
2489;DHT22;1255;48.716;9.124;2024-02-15T03:00:03;8.40;99.90
2489;DHT22;1255;48.716;9.124;2024-02-15T03:02:33;8.40;99.90
2489;DHT22;1255;48.716;9.124;2024-02-15T03:05:01;8.40;99.90
2489;DHT22;1255;48.716;9.124;2024-02-15T03:07:28;8.40;99.90
2489;DHT22;1255;48.716;9.124;2024-02-15T03:09:55;8.30;99.90
2489;DHT22;1255;48.716;9.124;2024-02-15T03:12:21;8.30;99.90
2489;DHT22;1255;48.716;9.124;2024-02-15T03:14:48;8.30;99.90
2489;DHT22;1255;48.716;9.124;2024-02-15T03:17:16;8.30;99.90
2489;DHT22;1255;48.716;9.124;2024-02-15T03:19:43;8.20;99.90
2489;DHT22;1255;48.716;9.124;2024-02-15T03:22:09;8.20;99.90
2489;DHT22;1255;48.716;9.124;2024-02-15T03:24:39;8.20;99.90
2489;DHT22;1255;48.716;9.124;2024-02-15T03:27:05;8.20;99.90
2489;DHT22;1255;48.716;9.124;2024-02-15T03:29:32;8.10;99.90
2489;DHT22;1255;48.716;9.124;2024-02-15T03:32:01;8.10;99.90
2489;DHT22;1255;48.716;9.124;2024-02-15T03:34:30;8.00;99.90
2489;DHT22;1255;48.716;9.124;2024-02-15T03:36:57;8.00;99.90
2489;DHT22;1255;48.716;9.124;2024-02-15T03:39:24;8.00;99.90
2489;DHT22;1255;48.716;9.124;2024-02-15T03:41:51;8.00;99.90
2489;DHT22;1255;48.716;9.124;2024-02-15T03:44:19;8.00;99.90
2489;DHT22;1255;48.716;9.124;2024-02-15T03:46:45;8.00;99.90
2489;DHT22;1255;48.716;9.124;2024-02-15T03:49:16;8.00;99.90
2489;DHT22;1255;48.716;9.124;2024-02-15T03:51:44;8.00;99.90
2489;DHT22;1255;48.716;9.124;2024-02-15T03:54:11;8.00;99.90
2489;DHT22;1255;48.716;9.124;2024-02-15T03:56:46;8.00;99.90
2489;DHT22;1255;48.716;9.124;2024-02-15T03:59:13;8.00;99.90
2489;DHT22;1255;48.716;9.124;2024-02-15T04:01:40;8.00;99.90
2489;DHT22;1255;48.716;9.124;2024-02-15T04:04:06;8.00;99.90
2489;DHT22;1255;48.716;9.124;2024-02-15T04:06:33;8.10;99.90
2489;DHT22;1255;48.716;9.124;2024-02-15T04:09:01;8.10;99.90
2489;DHT22;1255;48.716;9.124;2024-02-15T04:11:28;8.30;99.90
2489;DHT22;1255;48.716;9.124;2024-02-15T04:13:54;8.30;99.90
2489;DHT22;1255;48.716;9.124;2024-02-15T04:16:23;8.30;99.90
2489;DHT22;1255;48.716;9.124;2024-02-15T04:18:50;8.40;99.90
2489;DHT22;1255;48.716;9.124;2024-02-15T04:21:17;8.40;99.90
2489;DHT22;1255;48.716;9.124;2024-02-15T04:23:45;8.40;99.90
2489;DHT22;1255;48.716;9.124;2024-02-15T04:26:13;8.40;99.90
2489;DHT22;1255;48.716;9.124;2024-02-15T04:28:40;8.50;99.90
2489;DHT22;1255;48.716;9.124;2024-02-15T04:31:07;8.50;99.90
2489;DHT22;1255;48.716;9.124;2024-02-15T04:33:34;8.50;99.90
2489;DHT22;1255;48.716;9.124;2024-02-15T04:36:01;8.60;99.90
2489;DHT22;1255;48.716;9.124;2024-02-15T04:38:32;8.70;99.90
2489;DHT22;1255;48.716;9.124;2024-02-15T04:41:00;8.70;99.90
2489;DHT22;1255;48.716;9.124;2024-02-15T04:43:28;8.80;99.90
2489;DHT22;1255;48.716;9.124;2024-02-15T04:45:54;8.80;99.90
2489;DHT22;1255;48.716;9.124;2024-02-15T04:48:21;8.80;99.90
2489;DHT22;1255;48.716;9.124;2024-02-15T04:50:50;8.80;99.90
2489;DHT22;1255;48.716;9.124;2024-02-15T04:53:17;8.80;99.90
2489;DHT22;1255;48.716;9.124;2024-02-15T04:55:44;8.80;99.90
2489;DHT22;1255;48.716;9.124;2024-02-15T04:58:11;8.90;99.90
2489;DHT22;1255;48.716;9.124;2024-02-15T05:00:39;8.90;99.90
2489;DHT22;1255;48.716;9.124;2024-02-15T05:03:07;8.90;99.90
2489;DHT22;1255;48.716;9.124;2024-02-15T05:05:34;8.90;99.90
2489;DHT22;1255;48.716;9.124;2024-02-15T05:08:01;8.90;99.90
2489;DHT22;1255;48.716;9.124;2024-02-15T05:10:29;8.90;99.90
2489;DHT22;1255;48.716;9.124;2024-02-15T05:12:56;8.90;99.90
2489;DHT22;1255;48.716;9.124;2024-02-15T05:15:23;8.90;99.90
2489;DHT22;1255;48.716;9.124;2024-02-15T05:17:52;8.90;99.90
2489;DHT22;1255;48.716;9.124;2024-02-15T05:20:19;8.90;99.90
2489;DHT22;1255;48.716;9.124;2024-02-15T05:22:46;8.90;99.90
2489;DHT22;1255;48.716;9.124;2024-02-15T05:25:13;9.00;99.90
2489;DHT22;1255;48.716;9.124;2024-02-15T05:27:41;9.00;99.90
2489;DHT22;1255;48.716;9.124;2024-02-15T05:30:09;8.90;99.90
2489;DHT22;1255;48.716;9.124;2024-02-15T05:32:36;8.90;99.90
2489;DHT22;1255;48.716;9.124;2024-02-15T05:35:08;8.90;99.90
2489;DHT22;1255;48.716;9.124;2024-02-15T05:37:35;8.90;99.90
2489;DHT22;1255;48.716;9.124;2024-02-15T05:40:02;8.90;99.90
2489;DHT22;1255;48.716;9.124;2024-02-15T05:42:29;8.90;99.90
2489;DHT22;1255;48.716;9.124;2024-02-15T05:45:27;8.90;99.90
2489;DHT22;1255;48.716;9.124;2024-02-15T05:47:58;8.90;99.90
2489;DHT22;1255;48.716;9.124;2024-02-15T05:50:27;8.90;99.90
2489;DHT22;1255;48.716;9.124;2024-02-15T05:52:55;8.90;99.90
2489;DHT22;1255;48.716;9.124;2024-02-15T05:55:23;8.90;99.90
2489;DHT22;1255;48.716;9.124;2024-02-15T05:57:52;8.90;99.90
2489;DHT22;1255;48.716;9.124;2024-02-15T06:00:19;8.80;99.90
2489;DHT22;1255;48.716;9.124;2024-02-15T06:02:45;8.80;99.90
2489;DHT22;1255;48.716;9.124;2024-02-15T06:05:12;8.80;99.90
2489;DHT22;1255;48.716;9.124;2024-02-15T06:07:43;8.80;99.90
2489;DHT22;1255;48.716;9.124;2024-02-15T06:10:11;8.80;99.90
2489;DHT22;1255;48.716;9.124;2024-02-15T06:12:38;8.80;99.90
2489;DHT22;1255;48.716;9.124;2024-02-15T06:15:06;8.80;99.90
2489;DHT22;1255;48.716;9.124;2024-02-15T06:17:40;8.80;99.90
2489;DHT22;1255;48.716;9.124;2024-02-15T06:20:07;8.80;99.90
2489;DHT22;1255;48.716;9.124;2024-02-15T06:22:37;8.70;99.90
2489;DHT22;1255;48.716;9.124;2024-02-15T06:25:07;8.70;99.90
2489;DHT22;1255;48.716;9.124;2024-02-15T06:27:35;8.70;99.90
2489;DHT22;1255;48.716;9.124;2024-02-15T06:30:06;8.70;99.90
2489;DHT22;1255;48.716;9.124;2024-02-15T06:32:51;8.60;99.90
2489;DHT22;1255;48.716;9.124;2024-02-15T06:35:35;8.60;99.90
2489;DHT22;1255;48.716;9.124;2024-02-15T06:38:20;8.60;99.90
2489;DHT22;1255;48.716;9.124;2024-02-15T06:41:05;8.50;99.90
2489;DHT22;1255;48.716;9.124;2024-02-15T06:43:32;8.50;99.90
2489;DHT22;1255;48.716;9.124;2024-02-15T06:46:00;8.50;99.90
2489;DHT22;1255;48.716;9.124;2024-02-15T06:48:26;8.50;99.90
2489;DHT22;1255;48.716;9.124;2024-02-15T06:50:53;8.50;99.90
2489;DHT22;1255;48.716;9.124;2024-02-15T06:53:20;8.50;99.90
2489;DHT22;1255;48.716;9.124;2024-02-15T06:55:47;8.50;99.90
2489;DHT22;1255;48.716;9.124;2024-02-15T06:58:16;8.60;99.90
2489;DHT22;1255;48.716;9.124;2024-02-15T07:00:42;8.60;99.90
2489;DHT22;1255;48.716;9.124;2024-02-15T07:03:09;8.60;99.90
2489;DHT22;1255;48.716;9.124;2024-02-15T07:05:36;8.70;99.90
2489;DHT22;1255;48.716;9.124;2024-02-15T07:08:05;8.70;99.90
2489;DHT22;1255;48.716;9.124;2024-02-15T07:10:32;8.80;99.90
2489;DHT22;1255;48.716;9.124;2024-02-15T07:12:59;8.90;99.90
2489;DHT22;1255;48.716;9.124;2024-02-15T07:15:27;9.00;99.90
2489;DHT22;1255;48.716;9.124;2024-02-15T07:17:57;9.10;99.90
2489;DHT22;1255;48.716;9.124;2024-02-15T07:20:24;9.20;99.90
2489;DHT22;1255;48.716;9.124;2024-02-15T07:22:51;9.40;99.90
2489;DHT22;1255;48.716;9.124;2024-02-15T07:25:18;9.50;99.90
2489;DHT22;1255;48.716;9.124;2024-02-15T07:27:45;9.60;99.90
2489;DHT22;1255;48.716;9.124;2024-02-15T07:30:12;9.70;99.90
2489;DHT22;1255;48.716;9.124;2024-02-15T07:32:41;9.80;99.90
2489;DHT22;1255;48.716;9.124;2024-02-15T07:35:08;9.90;99.90
2489;DHT22;1255;48.716;9.124;2024-02-15T07:37:35;9.90;99.90
2489;DHT22;1255;48.716;9.124;2024-02-15T07:40:02;10.00;99.90
2489;DHT22;1255;48.716;9.124;2024-02-15T07:42:29;10.30;99.90
2489;DHT22;1255;48.716;9.124;2024-02-15T07:44:56;10.90;99.90
2489;DHT22;1255;48.716;9.124;2024-02-15T07:47:23;11.80;99.90
2489;DHT22;1255;48.716;9.124;2024-02-15T07:49:51;13.10;99.90
2489;DHT22;1255;48.716;9.124;2024-02-15T07:52:18;14.40;99.90
2489;DHT22;1255;48.716;9.124;2024-02-15T07:54:44;15.20;99.90
2489;DHT22;1255;48.716;9.124;2024-02-15T07:57:12;15.80;99.90
2489;DHT22;1255;48.716;9.124;2024-02-15T07:59:39;16.50;99.90
2489;DHT22;1255;48.716;9.124;2024-02-15T08:02:07;17.20;99.90
2489;DHT22;1255;48.716;9.124;2024-02-15T08:04:34;17.30;99.90
2489;DHT22;1255;48.716;9.124;2024-02-15T08:07:07;16.50;99.90
2489;DHT22;1255;48.716;9.124;2024-02-15T08:09:36;16.60;99.90
2489;DHT22;1255;48.716;9.124;2024-02-15T08:12:03;16.70;99.90
2489;DHT22;1255;48.716;9.124;2024-02-15T08:14:30;16.60;99.90
2489;DHT22;1255;48.716;9.124;2024-02-15T08:16:57;15.80;99.90
2489;DHT22;1255;48.716;9.124;2024-02-15T08:19:23;15.00;99.90
2489;DHT22;1255;48.716;9.124;2024-02-15T08:21:50;14.60;99.90
2489;DHT22;1255;48.716;9.124;2024-02-15T08:24:18;14.80;99.90
2489;DHT22;1255;48.716;9.124;2024-02-15T08:26:45;15.00;99.90
2489;DHT22;1255;48.716;9.124;2024-02-15T08:29:13;15.10;99.90
2489;DHT22;1255;48.716;9.124;2024-02-15T08:31:40;15.30;99.90
2489;DHT22;1255;48.716;9.124;2024-02-15T08:34:07;15.70;99.90
2489;DHT22;1255;48.716;9.124;2024-02-15T08:36:36;15.80;99.90
2489;DHT22;1255;48.716;9.124;2024-02-15T08:39:05;15.60;99.90
2489;DHT22;1255;48.716;9.124;2024-02-15T08:41:35;15.60;99.90
2489;DHT22;1255;48.716;9.124;2024-02-15T08:44:02;15.30;99.90
2489;DHT22;1255;48.716;9.124;2024-02-15T08:46:34;14.70;99.90
2489;DHT22;1255;48.716;9.124;2024-02-15T08:49:01;14.30;99.90
2489;DHT22;1255;48.716;9.124;2024-02-15T08:51:28;13.80;99.90
2489;DHT22;1255;48.716;9.124;2024-02-15T08:53:55;13.70;99.90
2489;DHT22;1255;48.716;9.124;2024-02-15T08:56:22;13.80;99.90
2489;DHT22;1255;48.716;9.124;2024-02-15T08:58:51;14.10;99.90
2489;DHT22;1255;48.716;9.124;2024-02-15T09:01:17;14.20;99.90
2489;DHT22;1255;48.716;9.124;2024-02-15T09:03:44;14.50;99.90
2489;DHT22;1255;48.716;9.124;2024-02-15T09:06:11;14.70;99.90
2489;DHT22;1255;48.716;9.124;2024-02-15T09:08:39;15.40;99.90
2489;DHT22;1255;48.716;9.124;2024-02-15T09:11:06;16.30;99.90
2489;DHT22;1255;48.716;9.124;2024-02-15T09:13:37;17.40;99.90
2489;DHT22;1255;48.716;9.124;2024-02-15T09:16:06;18.50;99.90
2489;DHT22;1255;48.716;9.124;2024-02-15T09:18:33;19.40;99.90
2489;DHT22;1255;48.716;9.124;2024-02-15T09:21:00;20.40;99.90
2489;DHT22;1255;48.716;9.124;2024-02-15T09:23:30;21.20;99.90
2489;DHT22;1255;48.716;9.124;2024-02-15T09:25:57;21.80;99.90
2489;DHT22;1255;48.716;9.124;2024-02-15T09:28:25;22.40;99.90
2489;DHT22;1255;48.716;9.124;2024-02-15T09:30:52;22.80;99.90
2489;DHT22;1255;48.716;9.124;2024-02-15T09:33:21;23.30;99.90
2489;DHT22;1255;48.716;9.124;2024-02-15T09:35:47;23.70;99.90
2489;DHT22;1255;48.716;9.124;2024-02-15T09:38:15;24.10;99.70
2489;DHT22;1255;48.716;9.124;2024-02-15T09:40:48;24.60;99.60
2489;DHT22;1255;48.716;9.124;2024-02-15T09:43:16;25.10;98.50
2489;DHT22;1255;48.716;9.124;2024-02-15T09:45:43;24.60;98.50
2489;DHT22;1255;48.716;9.124;2024-02-15T09:48:10;24.60;98.50
2489;DHT22;1255;48.716;9.124;2024-02-15T09:50:41;25.00;98.20
2489;DHT22;1255;48.716;9.124;2024-02-15T09:53:09;25.20;97.20
2489;DHT22;1255;48.716;9.124;2024-02-15T09:55:40;25.30;97.50
2489;DHT22;1255;48.716;9.124;2024-02-15T09:58:08;25.80;96.80
2489;DHT22;1255;48.716;9.124;2024-02-15T10:00:36;26.20;96.20
2489;DHT22;1255;48.716;9.124;2024-02-15T10:03:05;26.20;95.20
2489;DHT22;1255;48.716;9.124;2024-02-15T10:05:33;26.10;95.30
2489;DHT22;1255;48.716;9.124;2024-02-15T10:08:03;26.50;94.50
2489;DHT22;1255;48.716;9.124;2024-02-15T10:10:30;26.80;94.60
2489;DHT22;1255;48.716;9.124;2024-02-15T10:12:59;26.90;93.80
2489;DHT22;1255;48.716;9.124;2024-02-15T10:15:34;27.10;93.60
2489;DHT22;1255;48.716;9.124;2024-02-15T10:18:03;26.90;92.80
2489;DHT22;1255;48.716;9.124;2024-02-15T10:20:31;27.30;93.20
2489;DHT22;1255;48.716;9.124;2024-02-15T10:23:10;27.60;92.90
2489;DHT22;1255;48.716;9.124;2024-02-15T10:25:41;28.10;92.40
2489;DHT22;1255;48.716;9.124;2024-02-15T10:28:11;28.50;91.30
2489;DHT22;1255;48.716;9.124;2024-02-15T10:30:42;29.00;90.40
2489;DHT22;1255;48.716;9.124;2024-02-15T10:33:18;29.20;88.90
2489;DHT22;1255;48.716;9.124;2024-02-15T10:35:46;28.50;89.50
2489;DHT22;1255;48.716;9.124;2024-02-15T10:38:17;28.30;89.40
2489;DHT22;1255;48.716;9.124;2024-02-15T10:40:44;27.70;90.10
2489;DHT22;1255;48.716;9.124;2024-02-15T10:43:11;27.60;90.50
2489;DHT22;1255;48.716;9.124;2024-02-15T10:45:39;27.40;90.10
2489;DHT22;1255;48.716;9.124;2024-02-15T10:48:10;27.50;90.20
2489;DHT22;1255;48.716;9.124;2024-02-15T10:50:39;27.60;90.60
2489;DHT22;1255;48.716;9.124;2024-02-15T10:53:12;27.90;90.30
2489;DHT22;1255;48.716;9.124;2024-02-15T10:55:59;27.60;90.60
2489;DHT22;1255;48.716;9.124;2024-02-15T10:58:32;27.70;90.10
2489;DHT22;1255;48.716;9.124;2024-02-15T11:01:01;28.00;90.10
2489;DHT22;1255;48.716;9.124;2024-02-15T11:03:34;28.30;89.50
2489;DHT22;1255;48.716;9.124;2024-02-15T11:06:05;27.60;89.50
2489;DHT22;1255;48.716;9.124;2024-02-15T11:08:33;27.50;89.90
2489;DHT22;1255;48.716;9.124;2024-02-15T11:11:02;27.20;90.50
2489;DHT22;1255;48.716;9.124;2024-02-15T11:13:33;27.40;91.00
2489;DHT22;1255;48.716;9.124;2024-02-15T11:16:00;28.30;90.60
2489;DHT22;1255;48.716;9.124;2024-02-15T11:18:44;28.10;89.60
2489;DHT22;1255;48.716;9.124;2024-02-15T11:21:11;28.20;90.60
2489;DHT22;1255;48.716;9.124;2024-02-15T11:23:38;28.00;90.20
2489;DHT22;1255;48.716;9.124;2024-02-15T11:26:13;27.70;90.50
2489;DHT22;1255;48.716;9.124;2024-02-15T11:28:57;27.80;90.60
2489;DHT22;1255;48.716;9.124;2024-02-15T11:34:43;27.80;89.70
2489;DHT22;1255;48.716;9.124;2024-02-15T11:40:11;28.50;88.60
2489;DHT22;1255;48.716;9.124;2024-02-15T11:42:39;27.90;87.90
2489;DHT22;1255;48.716;9.124;2024-02-15T11:45:07;27.20;87.80
2489;DHT22;1255;48.716;9.124;2024-02-15T11:47:39;26.10;88.20
2489;DHT22;1255;48.716;9.124;2024-02-15T11:50:09;25.70;89.80
2489;DHT22;1255;48.716;9.124;2024-02-15T11:52:38;25.80;90.10
2489;DHT22;1255;48.716;9.124;2024-02-15T11:55:05;25.90;89.90
2489;DHT22;1255;48.716;9.124;2024-02-15T11:57:36;25.50;89.40
2489;DHT22;1255;48.716;9.124;2024-02-15T12:00:21;25.30;90.50
2489;DHT22;1255;48.716;9.124;2024-02-15T12:03:05;25.40;88.60
2489;DHT22;1255;48.716;9.124;2024-02-15T12:05:49;24.40;90.20
2489;DHT22;1255;48.716;9.124;2024-02-15T12:08:34;24.00;90.70
2489;DHT22;1255;48.716;9.124;2024-02-15T12:11:18;23.50;91.00
2489;DHT22;1255;48.716;9.124;2024-02-15T12:14:02;23.20;91.40
2489;DHT22;1255;48.716;9.124;2024-02-15T12:16:59;23.10;92.40
2489;DHT22;1255;48.716;9.124;2024-02-15T12:19:43;23.80;91.00
2489;DHT22;1255;48.716;9.124;2024-02-15T12:22:10;23.50;90.90
2489;DHT22;1255;48.716;9.124;2024-02-15T12:24:36;23.30;91.40
2489;DHT22;1255;48.716;9.124;2024-02-15T12:27:03;23.20;91.50
2489;DHT22;1255;48.716;9.124;2024-02-15T12:29:31;23.00;91.90
2489;DHT22;1255;48.716;9.124;2024-02-15T12:31:59;22.90;92.10
2489;DHT22;1255;48.716;9.124;2024-02-15T12:34:26;22.80;92.40
2489;DHT22;1255;48.716;9.124;2024-02-15T12:37:05;22.50;92.00
2489;DHT22;1255;48.716;9.124;2024-02-15T12:39:32;21.50;92.90
2489;DHT22;1255;48.716;9.124;2024-02-15T12:41:58;21.40;93.50
2489;DHT22;1255;48.716;9.124;2024-02-15T12:44:25;21.50;93.30
2489;DHT22;1255;48.716;9.124;2024-02-15T12:46:55;22.10;93.40
2489;DHT22;1255;48.716;9.124;2024-02-15T12:49:31;22.30;93.40
2489;DHT22;1255;48.716;9.124;2024-02-15T12:52:33;22.30;93.10
2489;DHT22;1255;48.716;9.124;2024-02-15T12:55:11;22.60;93.10
2489;DHT22;1255;48.716;9.124;2024-02-15T12:57:39;22.60;93.60
2489;DHT22;1255;48.716;9.124;2024-02-15T13:00:12;22.70;92.60
2489;DHT22;1255;48.716;9.124;2024-02-15T13:02:43;22.40;92.30
2489;DHT22;1255;48.716;9.124;2024-02-15T13:05:11;21.90;92.10
2489;DHT22;1255;48.716;9.124;2024-02-15T13:07:39;21.30;92.80
2489;DHT22;1255;48.716;9.124;2024-02-15T13:10:06;21.00;92.80
2489;DHT22;1255;48.716;9.124;2024-02-15T13:12:34;20.60;92.70
2489;DHT22;1255;48.716;9.124;2024-02-15T13:15:03;20.00;94.10
2489;DHT22;1255;48.716;9.124;2024-02-15T13:17:30;19.60;95.40
2489;DHT22;1255;48.716;9.124;2024-02-15T13:19:59;19.30;95.60
2489;DHT22;1255;48.716;9.124;2024-02-15T13:22:31;19.00;96.30
2489;DHT22;1255;48.716;9.124;2024-02-15T13:24:59;18.70;97.00
2489;DHT22;1255;48.716;9.124;2024-02-15T13:27:26;18.30;97.30
2489;DHT22;1255;48.716;9.124;2024-02-15T13:29:52;18.10;97.60
2489;DHT22;1255;48.716;9.124;2024-02-15T13:32:20;18.00;97.90
2489;DHT22;1255;48.716;9.124;2024-02-15T13:34:47;18.00;98.60
2489;DHT22;1255;48.716;9.124;2024-02-15T13:37:17;18.10;98.30
2489;DHT22;1255;48.716;9.124;2024-02-15T13:39:47;18.10;98.50
2489;DHT22;1255;48.716;9.124;2024-02-15T13:42:14;18.20;98.30
2489;DHT22;1255;48.716;9.124;2024-02-15T13:44:42;18.40;98.40
2489;DHT22;1255;48.716;9.124;2024-02-15T13:47:09;18.50;98.10
2489;DHT22;1255;48.716;9.124;2024-02-15T13:49:38;18.50;98.10
2489;DHT22;1255;48.716;9.124;2024-02-15T13:52:06;18.60;97.70
2489;DHT22;1255;48.716;9.124;2024-02-15T13:54:33;18.80;97.50
2489;DHT22;1255;48.716;9.124;2024-02-15T13:57:01;19.00;97.70
2489;DHT22;1255;48.716;9.124;2024-02-15T13:59:28;19.00;97.50
2489;DHT22;1255;48.716;9.124;2024-02-15T14:01:55;19.00;97.40
2489;DHT22;1255;48.716;9.124;2024-02-15T14:04:22;18.90;97.80
2489;DHT22;1255;48.716;9.124;2024-02-15T14:06:49;18.80;97.60
2489;DHT22;1255;48.716;9.124;2024-02-15T14:09:15;18.70;97.50
2489;DHT22;1255;48.716;9.124;2024-02-15T14:11:43;18.40;97.50
2489;DHT22;1255;48.716;9.124;2024-02-15T14:14:11;18.20;98.30
2489;DHT22;1255;48.716;9.124;2024-02-15T14:16:38;18.10;98.60
2489;DHT22;1255;48.716;9.124;2024-02-15T14:19:05;18.00;98.00
2489;DHT22;1255;48.716;9.124;2024-02-15T14:21:32;17.90;98.30
2489;DHT22;1255;48.716;9.124;2024-02-15T14:24:05;17.90;98.50
2489;DHT22;1255;48.716;9.124;2024-02-15T14:26:34;17.80;98.50
2489;DHT22;1255;48.716;9.124;2024-02-15T14:29:01;17.80;98.90
2489;DHT22;1255;48.716;9.124;2024-02-15T14:31:30;17.90;98.80
2489;DHT22;1255;48.716;9.124;2024-02-15T14:34:14;17.90;99.20
2489;DHT22;1255;48.716;9.124;2024-02-15T14:36:43;17.90;99.10
2489;DHT22;1255;48.716;9.124;2024-02-15T14:39:11;17.80;98.70
2489;DHT22;1255;48.716;9.124;2024-02-15T14:41:39;17.90;99.10
2489;DHT22;1255;48.716;9.124;2024-02-15T14:44:06;18.00;99.10
2489;DHT22;1255;48.716;9.124;2024-02-15T14:46:34;18.20;99.10
2489;DHT22;1255;48.716;9.124;2024-02-15T14:49:01;18.30;99.10
2489;DHT22;1255;48.716;9.124;2024-02-15T14:51:28;18.40;99.00
2489;DHT22;1255;48.716;9.124;2024-02-15T14:53:57;18.40;99.00
2489;DHT22;1255;48.716;9.124;2024-02-15T14:56:24;18.20;99.40
2489;DHT22;1255;48.716;9.124;2024-02-15T14:58:50;18.20;99.40
2489;DHT22;1255;48.716;9.124;2024-02-15T15:01:18;18.30;99.30
2489;DHT22;1255;48.716;9.124;2024-02-15T15:03:53;18.40;99.10
2489;DHT22;1255;48.716;9.124;2024-02-15T15:06:20;18.40;99.10
2489;DHT22;1255;48.716;9.124;2024-02-15T15:09:04;18.40;99.30
2489;DHT22;1255;48.716;9.124;2024-02-15T15:11:48;18.10;99.20
2489;DHT22;1255;48.716;9.124;2024-02-15T15:14:35;18.00;99.40
2489;DHT22;1255;48.716;9.124;2024-02-15T15:17:03;17.90;99.70
2489;DHT22;1255;48.716;9.124;2024-02-15T15:19:31;17.80;99.60
2489;DHT22;1255;48.716;9.124;2024-02-15T15:21:58;17.80;99.90
2489;DHT22;1255;48.716;9.124;2024-02-15T15:24:25;17.70;99.90
2489;DHT22;1255;48.716;9.124;2024-02-15T15:26:52;17.60;99.90
2489;DHT22;1255;48.716;9.124;2024-02-15T15:29:18;17.50;99.90
2489;DHT22;1255;48.716;9.124;2024-02-15T15:31:45;17.40;99.90
2489;DHT22;1255;48.716;9.124;2024-02-15T15:34:12;17.30;99.90
2489;DHT22;1255;48.716;9.124;2024-02-15T15:36:40;17.10;99.90
2489;DHT22;1255;48.716;9.124;2024-02-15T15:39:07;17.10;99.90
2489;DHT22;1255;48.716;9.124;2024-02-15T15:41:36;17.00;99.90
2489;DHT22;1255;48.716;9.124;2024-02-15T15:44:04;16.90;99.90
2489;DHT22;1255;48.716;9.124;2024-02-15T15:46:31;16.80;99.90
2489;DHT22;1255;48.716;9.124;2024-02-15T15:48:59;16.70;99.90
2489;DHT22;1255;48.716;9.124;2024-02-15T15:51:25;16.60;99.90
2489;DHT22;1255;48.716;9.124;2024-02-15T15:53:54;16.40;99.90
2489;DHT22;1255;48.716;9.124;2024-02-15T15:56:21;16.40;99.90
2489;DHT22;1255;48.716;9.124;2024-02-15T15:58:48;16.30;99.90
2489;DHT22;1255;48.716;9.124;2024-02-15T16:01:15;16.20;99.90
2489;DHT22;1255;48.716;9.124;2024-02-15T16:03:42;16.10;99.90
2489;DHT22;1255;48.716;9.124;2024-02-15T16:06:11;15.90;99.90
2489;DHT22;1255;48.716;9.124;2024-02-15T16:08:38;15.80;99.90
2489;DHT22;1255;48.716;9.124;2024-02-15T16:11:06;15.80;99.90
2489;DHT22;1255;48.716;9.124;2024-02-15T16:13:33;15.70;99.90
2489;DHT22;1255;48.716;9.124;2024-02-15T16:16:00;15.60;99.90
2489;DHT22;1255;48.716;9.124;2024-02-15T16:18:29;15.50;99.90
2489;DHT22;1255;48.716;9.124;2024-02-15T16:20:56;15.50;99.90
2489;DHT22;1255;48.716;9.124;2024-02-15T16:23:23;15.30;99.90